sensor_id;sensor_type;location;lat;lon;timestamp;P1;durP1;ratioP1;P2;durP2;ratioP2
8982;SDS011;20979;59.850;10.660;2023-05-29T00:00:37;1.90;;;1.10;;
8982;SDS011;20979;59.850;10.660;2023-05-29T00:03:07;1.50;;;1.17;;
8982;SDS011;20979;59.850;10.660;2023-05-29T00:05:48;2.67;;;1.43;;
8982;SDS011;20979;59.850;10.660;2023-05-29T00:08:29;2.27;;;1.33;;
8982;SDS011;20979;59.850;10.660;2023-05-29T00:11:03;2.00;;;1.13;;
8982;SDS011;20979;59.850;10.660;2023-05-29T00:16:40;2.23;;;1.07;;
8982;SDS011;20979;59.850;10.660;2023-05-29T00:19:21;2.17;;;1.23;;
8982;SDS011;20979;59.850;10.660;2023-05-29T00:27:25;1.93;;;1.17;;
8982;SDS011;20979;59.850;10.660;2023-05-29T00:33:34;2.63;;;1.40;;
8982;SDS011;20979;59.850;10.660;2023-05-29T00:36:25;1.73;;;1.00;;
8982;SDS011;20979;59.850;10.660;2023-05-29T00:38:59;2.20;;;1.23;;
8982;SDS011;20979;59.850;10.660;2023-05-29T00:41:56;2.07;;;1.17;;
8982;SDS011;20979;59.850;10.660;2023-05-29T00:47:21;2.27;;;1.10;;
8982;SDS011;20979;59.850;10.660;2023-05-29T00:52:44;2.40;;;1.27;;
8982;SDS011;20979;59.850;10.660;2023-05-29T00:55:44;1.97;;;1.20;;
8982;SDS011;20979;59.850;10.660;2023-05-29T00:58:12;1.10;;;1.00;;
8982;SDS011;20979;59.850;10.660;2023-05-29T01:00:52;2.63;;;1.40;;
8982;SDS011;20979;59.850;10.660;2023-05-29T01:03:21;1.90;;;1.10;;
8982;SDS011;20979;59.850;10.660;2023-05-29T01:13:41;1.73;;;1.13;;
8982;SDS011;20979;59.850;10.660;2023-05-29T01:15:35;2.83;;;1.30;;
8982;SDS011;20979;59.850;10.660;2023-05-29T01:18:12;2.07;;;1.20;;
8982;SDS011;20979;59.850;10.660;2023-05-29T01:23:40;2.33;;;1.40;;
8982;SDS011;20979;59.850;10.660;2023-05-29T01:28:57;2.47;;;1.30;;
8982;SDS011;20979;59.850;10.660;2023-05-29T01:31:26;2.97;;;1.33;;
8982;SDS011;20979;59.850;10.660;2023-05-29T01:33:54;2.60;;;1.40;;
8982;SDS011;20979;59.850;10.660;2023-05-29T01:36:41;1.40;;;1.07;;
8982;SDS011;20979;59.850;10.660;2023-05-29T01:39:09;1.50;;;1.10;;
8982;SDS011;20979;59.850;10.660;2023-05-29T01:41:39;3.47;;;1.40;;
8982;SDS011;20979;59.850;10.660;2023-05-29T01:44:08;2.87;;;1.20;;
8982;SDS011;20979;59.850;10.660;2023-05-29T01:46:36;2.30;;;1.40;;
8982;SDS011;20979;59.850;10.660;2023-05-29T01:52:16;4.93;;;1.20;;
8982;SDS011;20979;59.850;10.660;2023-05-29T01:54:44;2.27;;;1.37;;
8982;SDS011;20979;59.850;10.660;2023-05-29T01:57:11;1.40;;;1.20;;
8982;SDS011;20979;59.850;10.660;2023-05-29T01:59:44;1.73;;;1.27;;
8982;SDS011;20979;59.850;10.660;2023-05-29T02:02:18;2.87;;;1.30;;
8982;SDS011;20979;59.850;10.660;2023-05-29T02:04:56;2.17;;;1.20;;
8982;SDS011;20979;59.850;10.660;2023-05-29T02:07:26;3.10;;;1.40;;
8982;SDS011;20979;59.850;10.660;2023-05-29T02:09:56;2.87;;;1.47;;
8982;SDS011;20979;59.850;10.660;2023-05-29T02:12:24;1.77;;;1.37;;
8982;SDS011;20979;59.850;10.660;2023-05-29T02:14:53;2.73;;;1.30;;
8982;SDS011;20979;59.850;10.660;2023-05-29T02:17:22;3.60;;;1.70;;
8982;SDS011;20979;59.850;10.660;2023-05-29T02:19:49;3.00;;;1.43;;
8982;SDS011;20979;59.850;10.660;2023-05-29T02:22:17;1.60;;;1.47;;
8982;SDS011;20979;59.850;10.660;2023-05-29T02:24:45;3.47;;;1.40;;
8982;SDS011;20979;59.850;10.660;2023-05-29T02:27:13;2.27;;;1.53;;
8982;SDS011;20979;59.850;10.660;2023-05-29T02:29:40;2.83;;;1.30;;
8982;SDS011;20979;59.850;10.660;2023-05-29T02:32:09;2.80;;;1.30;;
8982;SDS011;20979;59.850;10.660;2023-05-29T02:34:37;2.47;;;1.40;;
8982;SDS011;20979;59.850;10.660;2023-05-29T02:37:05;2.53;;;1.43;;
8982;SDS011;20979;59.850;10.660;2023-05-29T02:39:37;2.47;;;1.30;;
8982;SDS011;20979;59.850;10.660;2023-05-29T02:42:05;3.40;;;1.60;;
8982;SDS011;20979;59.850;10.660;2023-05-29T02:44:33;4.57;;;1.50;;
8982;SDS011;20979;59.850;10.660;2023-05-29T02:47:03;3.40;;;1.33;;
8982;SDS011;20979;59.850;10.660;2023-05-29T02:49:32;5.43;;;1.50;;
8982;SDS011;20979;59.850;10.660;2023-05-29T02:52:02;3.07;;;1.43;;
8982;SDS011;20979;59.850;10.660;2023-05-29T02:54:32;3.10;;;1.43;;
8982;SDS011;20979;59.850;10.660;2023-05-29T02:57:00;2.77;;;1.53;;
8982;SDS011;20979;59.850;10.660;2023-05-29T02:59:30;2.43;;;1.40;;
8982;SDS011;20979;59.850;10.660;2023-05-29T03:01:59;2.37;;;1.47;;
8982;SDS011;20979;59.850;10.660;2023-05-29T03:04:27;2.17;;;1.40;;
8982;SDS011;20979;59.850;10.660;2023-05-29T03:06:56;2.03;;;1.53;;
8982;SDS011;20979;59.850;10.660;2023-05-29T03:09:23;2.60;;;1.23;;
8982;SDS011;20979;59.850;10.660;2023-05-29T03:11:54;3.63;;;1.50;;
8982;SDS011;20979;59.850;10.660;2023-05-29T03:14:21;3.60;;;1.70;;
8982;SDS011;20979;59.850;10.660;2023-05-29T03:16:49;2.97;;;1.50;;
8982;SDS011;20979;59.850;10.660;2023-05-29T03:19:16;2.40;;;1.50;;
8982;SDS011;20979;59.850;10.660;2023-05-29T03:21:44;3.20;;;1.53;;
8982;SDS011;20979;59.850;10.660;2023-05-29T03:24:13;3.17;;;1.40;;
8982;SDS011;20979;59.850;10.660;2023-05-29T03:26:42;1.50;;;1.40;;
8982;SDS011;20979;59.850;10.660;2023-05-29T03:29:10;3.33;;;1.63;;
8982;SDS011;20979;59.850;10.660;2023-05-29T03:32:00;4.13;;;1.50;;
8982;SDS011;20979;59.850;10.660;2023-05-29T03:34:27;4.37;;;1.50;;
8982;SDS011;20979;59.850;10.660;2023-05-29T03:37:04;2.47;;;1.50;;
8982;SDS011;20979;59.850;10.660;2023-05-29T03:39:34;2.13;;;1.27;;
8982;SDS011;20979;59.850;10.660;2023-05-29T03:42:03;3.07;;;1.70;;
8982;SDS011;20979;59.850;10.660;2023-05-29T03:44:30;2.47;;;1.40;;
8982;SDS011;20979;59.850;10.660;2023-05-29T03:46:58;2.83;;;1.53;;
8982;SDS011;20979;59.850;10.660;2023-05-29T03:49:25;3.20;;;1.60;;
8982;SDS011;20979;59.850;10.660;2023-05-29T03:51:54;3.50;;;1.60;;
8982;SDS011;20979;59.850;10.660;2023-05-29T03:54:42;1.97;;;1.33;;
8982;SDS011;20979;59.850;10.660;2023-05-29T03:57:16;2.50;;;1.30;;
8982;SDS011;20979;59.850;10.660;2023-05-29T03:59:43;3.43;;;1.47;;
8982;SDS011;20979;59.850;10.660;2023-05-29T04:02:11;2.53;;;1.83;;
8982;SDS011;20979;59.850;10.660;2023-05-29T04:04:38;2.40;;;1.37;;
8982;SDS011;20979;59.850;10.660;2023-05-29T04:07:06;4.73;;;1.50;;
8982;SDS011;20979;59.850;10.660;2023-05-29T04:09:34;3.17;;;1.57;;
8982;SDS011;20979;59.850;10.660;2023-05-29T04:12:17;3.00;;;1.53;;
8982;SDS011;20979;59.850;10.660;2023-05-29T04:14:52;4.50;;;1.60;;
8982;SDS011;20979;59.850;10.660;2023-05-29T04:17:25;3.37;;;1.30;;
8982;SDS011;20979;59.850;10.660;2023-05-29T04:20:01;3.87;;;1.67;;
8982;SDS011;20979;59.850;10.660;2023-05-29T04:22:34;3.27;;;1.57;;
8982;SDS011;20979;59.850;10.660;2023-05-29T04:25:01;4.50;;;1.60;;
8982;SDS011;20979;59.850;10.660;2023-05-29T04:27:31;2.77;;;1.47;;
8982;SDS011;20979;59.850;10.660;2023-05-29T04:30:05;3.13;;;1.53;;
8982;SDS011;20979;59.850;10.660;2023-05-29T04:32:35;3.57;;;1.70;;
8982;SDS011;20979;59.850;10.660;2023-05-29T04:35:06;2.60;;;1.40;;
8982;SDS011;20979;59.850;10.660;2023-05-29T04:37:34;3.27;;;1.57;;
8982;SDS011;20979;59.850;10.660;2023-05-29T04:40:03;4.50;;;1.70;;
8982;SDS011;20979;59.850;10.660;2023-05-29T04:42:35;3.60;;;1.47;;
8982;SDS011;20979;59.850;10.660;2023-05-29T04:45:08;2.63;;;1.53;;
8982;SDS011;20979;59.850;10.660;2023-05-29T04:47:49;3.33;;;1.40;;
8982;SDS011;20979;59.850;10.660;2023-05-29T04:50:20;2.30;;;1.50;;
8982;SDS011;20979;59.850;10.660;2023-05-29T04:52:48;3.87;;;1.77;;
8982;SDS011;20979;59.850;10.660;2023-05-29T04:55:18;4.40;;;1.67;;
8982;SDS011;20979;59.850;10.660;2023-05-29T04:57:51;4.73;;;1.70;;
8982;SDS011;20979;59.850;10.660;2023-05-29T05:00:25;2.70;;;1.60;;
8982;SDS011;20979;59.850;10.660;2023-05-29T05:05:58;2.37;;;1.50;;
8982;SDS011;20979;59.850;10.660;2023-05-29T05:08:45;4.63;;;1.60;;
8982;SDS011;20979;59.850;10.660;2023-05-29T05:11:12;5.07;;;1.80;;
8982;SDS011;20979;59.850;10.660;2023-05-29T05:13:46;4.03;;;1.50;;
8982;SDS011;20979;59.850;10.660;2023-05-29T05:16:13;3.57;;;1.60;;
8982;SDS011;20979;59.850;10.660;2023-05-29T05:18:41;3.87;;;1.97;;
8982;SDS011;20979;59.850;10.660;2023-05-29T05:21:12;4.67;;;2.00;;
8982;SDS011;20979;59.850;10.660;2023-05-29T05:23:53;4.27;;;2.07;;
8982;SDS011;20979;59.850;10.660;2023-05-29T05:26:21;4.67;;;1.80;;
8982;SDS011;20979;59.850;10.660;2023-05-29T05:34:20;4.87;;;1.70;;
8982;SDS011;20979;59.850;10.660;2023-05-29T05:40:06;3.67;;;1.73;;
8982;SDS011;20979;59.850;10.660;2023-05-29T05:42:34;3.10;;;1.70;;
8982;SDS011;20979;59.850;10.660;2023-05-29T05:45:02;5.63;;;1.77;;
8982;SDS011;20979;59.850;10.660;2023-05-29T05:47:35;3.63;;;1.80;;
8982;SDS011;20979;59.850;10.660;2023-05-29T05:50:05;3.87;;;1.90;;
8982;SDS011;20979;59.850;10.660;2023-05-29T05:52:32;4.90;;;1.87;;
8982;SDS011;20979;59.850;10.660;2023-05-29T05:55:17;3.27;;;1.73;;
8982;SDS011;20979;59.850;10.660;2023-05-29T05:57:58;3.10;;;1.73;;
8982;SDS011;20979;59.850;10.660;2023-05-29T06:00:28;3.23;;;1.73;;
8982;SDS011;20979;59.850;10.660;2023-05-29T06:02:56;2.87;;;1.70;;
8982;SDS011;20979;59.850;10.660;2023-05-29T06:05:35;3.53;;;1.97;;
8982;SDS011;20979;59.850;10.660;2023-05-29T06:08:05;3.43;;;1.60;;
8982;SDS011;20979;59.850;10.660;2023-05-29T06:10:37;2.93;;;1.53;;
8982;SDS011;20979;59.850;10.660;2023-05-29T06:13:06;2.93;;;1.60;;
8982;SDS011;20979;59.850;10.660;2023-05-29T06:15:37;3.37;;;1.60;;
8982;SDS011;20979;59.850;10.660;2023-05-29T06:18:04;4.00;;;1.60;;
8982;SDS011;20979;59.850;10.660;2023-05-29T06:20:33;4.27;;;1.80;;
8982;SDS011;20979;59.850;10.660;2023-05-29T06:23:01;3.03;;;1.83;;
8982;SDS011;20979;59.850;10.660;2023-05-29T06:25:29;2.63;;;1.40;;
8982;SDS011;20979;59.850;10.660;2023-05-29T06:28:00;4.13;;;2.20;;
8982;SDS011;20979;59.850;10.660;2023-05-29T06:30:32;3.43;;;1.77;;
8982;SDS011;20979;59.850;10.660;2023-05-29T06:33:00;4.43;;;1.60;;
8982;SDS011;20979;59.850;10.660;2023-05-29T06:35:28;3.20;;;1.63;;
8982;SDS011;20979;59.850;10.660;2023-05-29T06:37:57;3.57;;;1.97;;
8982;SDS011;20979;59.850;10.660;2023-05-29T06:40:24;4.40;;;2.10;;
8982;SDS011;20979;59.850;10.660;2023-05-29T06:42:52;3.47;;;1.80;;
8982;SDS011;20979;59.850;10.660;2023-05-29T06:45:19;4.37;;;2.03;;
8982;SDS011;20979;59.850;10.660;2023-05-29T06:47:47;3.30;;;1.63;;
8982;SDS011;20979;59.850;10.660;2023-05-29T06:50:16;2.77;;;1.73;;
8982;SDS011;20979;59.850;10.660;2023-05-29T06:52:44;4.77;;;1.90;;
8982;SDS011;20979;59.850;10.660;2023-05-29T06:55:13;2.97;;;1.60;;
8982;SDS011;20979;59.850;10.660;2023-05-29T06:57:41;4.50;;;1.80;;
8982;SDS011;20979;59.850;10.660;2023-05-29T07:00:10;4.00;;;1.80;;
8982;SDS011;20979;59.850;10.660;2023-05-29T07:02:37;3.50;;;1.90;;
8982;SDS011;20979;59.850;10.660;2023-05-29T07:05:13;3.63;;;1.80;;
8982;SDS011;20979;59.850;10.660;2023-05-29T07:07:44;3.57;;;1.90;;
8982;SDS011;20979;59.850;10.660;2023-05-29T07:10:12;2.90;;;1.40;;
8982;SDS011;20979;59.850;10.660;2023-05-29T07:15:58;3.00;;;1.87;;
8982;SDS011;20979;59.850;10.660;2023-05-29T07:18:30;3.87;;;1.80;;
8982;SDS011;20979;59.850;10.660;2023-05-29T07:21:18;3.10;;;1.50;;
8982;SDS011;20979;59.850;10.660;2023-05-29T07:23:59;2.97;;;1.40;;
8982;SDS011;20979;59.850;10.660;2023-05-29T07:26:40;4.87;;;1.90;;
8982;SDS011;20979;59.850;10.660;2023-05-29T07:29:27;3.40;;;1.77;;
8982;SDS011;20979;59.850;10.660;2023-05-29T07:31:59;2.97;;;1.53;;
8982;SDS011;20979;59.850;10.660;2023-05-29T07:34:32;2.70;;;1.70;;
8982;SDS011;20979;59.850;10.660;2023-05-29T07:37:03;4.73;;;1.93;;
8982;SDS011;20979;59.850;10.660;2023-05-29T07:39:45;5.20;;;1.83;;
8982;SDS011;20979;59.850;10.660;2023-05-29T07:42:13;4.20;;;1.80;;
8982;SDS011;20979;59.850;10.660;2023-05-29T07:44:42;2.67;;;2.00;;
8982;SDS011;20979;59.850;10.660;2023-05-29T07:47:21;2.70;;;1.70;;
8982;SDS011;20979;59.850;10.660;2023-05-29T07:49:48;4.87;;;1.93;;
8982;SDS011;20979;59.850;10.660;2023-05-29T07:52:17;4.83;;;1.57;;
8982;SDS011;20979;59.850;10.660;2023-05-29T07:54:47;3.60;;;1.80;;
8982;SDS011;20979;59.850;10.660;2023-05-29T08:00:29;4.83;;;1.77;;
8982;SDS011;20979;59.850;10.660;2023-05-29T08:05:44;5.80;;;1.80;;
8982;SDS011;20979;59.850;10.660;2023-05-29T08:08:22;2.53;;;1.63;;
8982;SDS011;20979;59.850;10.660;2023-05-29T08:10:50;3.67;;;1.83;;
8982;SDS011;20979;59.850;10.660;2023-05-29T08:13:23;4.07;;;1.60;;
8982;SDS011;20979;59.850;10.660;2023-05-29T08:15:50;3.40;;;1.63;;
8982;SDS011;20979;59.850;10.660;2023-05-29T08:18:57;4.10;;;1.80;;
8982;SDS011;20979;59.850;10.660;2023-05-29T08:21:26;3.27;;;1.70;;
8982;SDS011;20979;59.850;10.660;2023-05-29T08:23:56;3.10;;;1.80;;
8982;SDS011;20979;59.850;10.660;2023-05-29T08:26:24;4.03;;;1.80;;
8982;SDS011;20979;59.850;10.660;2023-05-29T08:29:05;4.53;;;1.80;;
8982;SDS011;20979;59.850;10.660;2023-05-29T08:31:35;5.95;;;2.13;;
8982;SDS011;20979;59.850;10.660;2023-05-29T08:34:06;2.83;;;1.65;;
8982;SDS011;20979;59.850;10.660;2023-05-29T08:36:52;3.90;;;1.90;;
8982;SDS011;20979;59.850;10.660;2023-05-29T08:39:33;4.03;;;1.67;;
8982;SDS011;20979;59.850;10.660;2023-05-29T08:42:04;3.40;;;1.70;;
8982;SDS011;20979;59.850;10.660;2023-05-29T08:47:47;3.17;;;1.70;;
8982;SDS011;20979;59.850;10.660;2023-05-29T08:56:46;2.45;;;1.60;;
8982;SDS011;20979;59.850;10.660;2023-05-29T08:59:14;2.38;;;1.77;;
8982;SDS011;20979;59.850;10.660;2023-05-29T09:01:56;6.82;;;2.35;;
8982;SDS011;20979;59.850;10.660;2023-05-29T09:04:33;3.30;;;1.65;;
8982;SDS011;20979;59.850;10.660;2023-05-29T09:07:03;3.80;;;1.58;;
8982;SDS011;20979;59.850;10.660;2023-05-29T09:09:52;4.32;;;2.00;;
8982;SDS011;20979;59.850;10.660;2023-05-29T09:19:08;3.92;;;1.77;;
8982;SDS011;20979;59.850;10.660;2023-05-29T09:24:59;3.03;;;1.55;;
8982;SDS011;20979;59.850;10.660;2023-05-29T09:30:20;4.25;;;1.80;;
8982;SDS011;20979;59.850;10.660;2023-05-29T09:30:47;3.50;;;1.65;;
8982;SDS011;20979;59.850;10.660;2023-05-29T09:39:16;3.47;;;1.88;;
8982;SDS011;20979;59.850;10.660;2023-05-29T09:41:58;5.00;;;1.77;;
8982;SDS011;20979;59.850;10.660;2023-05-29T09:51:02;4.40;;;1.63;;
8982;SDS011;20979;59.850;10.660;2023-05-29T09:53:43;3.28;;;1.70;;
8982;SDS011;20979;59.850;10.660;2023-05-29T09:56:30;3.80;;;1.83;;
8982;SDS011;20979;59.850;10.660;2023-05-29T09:59:22;2.60;;;1.70;;
8982;SDS011;20979;59.850;10.660;2023-05-29T10:02:00;2.75;;;1.83;;
8982;SDS011;20979;59.850;10.660;2023-05-29T10:04:42;2.75;;;1.70;;
8982;SDS011;20979;59.850;10.660;2023-05-29T10:22:17;2.72;;;1.55;;
8982;SDS011;20979;59.850;10.660;2023-05-29T10:25:00;3.53;;;1.83;;
8982;SDS011;20979;59.850;10.660;2023-05-29T10:27:29;3.47;;;1.60;;
8982;SDS011;20979;59.850;10.660;2023-05-29T10:30:01;2.33;;;1.48;;
8982;SDS011;20979;59.850;10.660;2023-05-29T10:33:01;2.60;;;1.45;;
8982;SDS011;20979;59.850;10.660;2023-05-29T10:35:46;2.90;;;1.35;;
8982;SDS011;20979;59.850;10.660;2023-05-29T10:44:37;2.15;;;1.40;;
8982;SDS011;20979;59.850;10.660;2023-05-29T10:47:12;2.88;;;1.38;;
8982;SDS011;20979;59.850;10.660;2023-05-29T10:49:44;2.72;;;1.60;;
8982;SDS011;20979;59.850;10.660;2023-05-29T10:58:17;1.42;;;1.10;;
8982;SDS011;20979;59.850;10.660;2023-05-29T11:07:02;1.67;;;1.13;;
8982;SDS011;20979;59.850;10.660;2023-05-29T11:09:47;2.35;;;1.45;;
8982;SDS011;20979;59.850;10.660;2023-05-29T11:12:28;3.20;;;1.40;;
8982;SDS011;20979;59.850;10.660;2023-05-29T11:17:46;3.05;;;1.65;;
8982;SDS011;20979;59.850;10.660;2023-05-29T11:26:26;2.43;;;1.33;;
8982;SDS011;20979;59.850;10.660;2023-05-29T11:28:58;2.17;;;1.48;;
8982;SDS011;20979;59.850;10.660;2023-05-29T11:37:29;2.33;;;1.40;;
8982;SDS011;20979;59.850;10.660;2023-05-29T11:55:32;2.45;;;1.30;;
8982;SDS011;20979;59.850;10.660;2023-05-29T11:58:03;2.15;;;1.30;;
8982;SDS011;20979;59.850;10.660;2023-05-29T12:03:39;3.15;;;1.60;;
8982;SDS011;20979;59.850;10.660;2023-05-29T12:12:25;2.78;;;1.40;;
8982;SDS011;20979;59.850;10.660;2023-05-29T12:20:57;3.30;;;1.55;;
8982;SDS011;20979;59.850;10.660;2023-05-29T12:23:40;2.55;;;1.25;;
8982;SDS011;20979;59.850;10.660;2023-05-29T12:26:28;1.90;;;1.10;;
8982;SDS011;20979;59.850;10.660;2023-05-29T12:29:12;3.00;;;1.40;;
8982;SDS011;20979;59.850;10.660;2023-05-29T12:31:57;3.15;;;1.17;;
8982;SDS011;20979;59.850;10.660;2023-05-29T12:34:53;2.33;;;1.30;;
8982;SDS011;20979;59.850;10.660;2023-05-29T12:37:43;2.05;;;1.30;;
8982;SDS011;20979;59.850;10.660;2023-05-29T12:40:15;1.77;;;1.17;;
8982;SDS011;20979;59.850;10.660;2023-05-29T12:46:03;1.70;;;1.08;;
8982;SDS011;20979;59.850;10.660;2023-05-29T12:52:08;2.70;;;1.50;;
8982;SDS011;20979;59.850;10.660;2023-05-29T12:54:49;3.55;;;1.55;;
8982;SDS011;20979;59.850;10.660;2023-05-29T12:57:44;2.42;;;1.00;;
8982;SDS011;20979;59.850;10.660;2023-05-29T13:06:34;1.45;;;1.20;;
8982;SDS011;20979;59.850;10.660;2023-05-29T13:09:09;3.63;;;1.30;;
8982;SDS011;20979;59.850;10.660;2023-05-29T13:11:40;2.45;;;1.27;;
8982;SDS011;20979;59.850;10.660;2023-05-29T13:14:08;1.55;;;1.10;;
8982;SDS011;20979;59.850;10.660;2023-05-29T13:19:29;2.95;;;1.15;;
8982;SDS011;20979;59.850;10.660;2023-05-29T13:22:11;2.67;;;1.08;;
8982;SDS011;20979;59.850;10.660;2023-05-29T13:24:39;2.10;;;1.00;;
8982;SDS011;20979;59.850;10.660;2023-05-29T13:27:43;3.30;;;1.00;;
8982;SDS011;20979;59.850;10.660;2023-05-29T13:30:13;2.05;;;1.10;;
8982;SDS011;20979;59.850;10.660;2023-05-29T13:32:42;2.15;;;0.90;;
8982;SDS011;20979;59.850;10.660;2023-05-29T13:35:10;4.35;;;0.82;;
8982;SDS011;20979;59.850;10.660;2023-05-29T13:40:50;2.00;;;1.10;;
8982;SDS011;20979;59.850;10.660;2023-05-29T13:43:17;0.75;;;0.70;;
8982;SDS011;20979;59.850;10.660;2023-05-29T13:45:45;1.48;;;1.00;;
8982;SDS011;20979;59.850;10.660;2023-05-29T13:48:16;1.30;;;0.73;;
8982;SDS011;20979;59.850;10.660;2023-05-29T13:50:59;1.30;;;0.80;;
8982;SDS011;20979;59.850;10.660;2023-05-29T13:53:56;1.45;;;1.00;;
8982;SDS011;20979;59.850;10.660;2023-05-29T13:59:45;1.48;;;0.90;;
8982;SDS011;20979;59.850;10.660;2023-05-29T14:02:12;2.08;;;1.10;;
8982;SDS011;20979;59.850;10.660;2023-05-29T14:08:14;2.55;;;0.90;;
8982;SDS011;20979;59.850;10.660;2023-05-29T14:10:59;1.92;;;0.90;;
8982;SDS011;20979;59.850;10.660;2023-05-29T14:13:40;1.63;;;0.90;;
8982;SDS011;20979;59.850;10.660;2023-05-29T14:16:10;2.00;;;0.85;;
8982;SDS011;20979;59.850;10.660;2023-05-29T14:18:40;0.95;;;0.80;;
8982;SDS011;20979;59.850;10.660;2023-05-29T14:24:19;2.40;;;0.70;;
8982;SDS011;20979;59.850;10.660;2023-05-29T14:30:08;0.65;;;0.40;;
8982;SDS011;20979;59.850;10.660;2023-05-29T14:33:00;0.63;;;0.43;;
8982;SDS011;20979;59.850;10.660;2023-05-29T14:35:41;0.40;;;0.30;;
8982;SDS011;20979;59.850;10.660;2023-05-29T14:38:31;1.30;;;0.35;;
8982;SDS011;20979;59.850;10.660;2023-05-29T14:41:05;0.35;;;0.35;;
8982;SDS011;20979;59.850;10.660;2023-05-29T14:43:35;1.10;;;0.30;;
8982;SDS011;20979;59.850;10.660;2023-05-29T14:46:06;0.90;;;0.40;;
8982;SDS011;20979;59.850;10.660;2023-05-29T14:51:35;0.70;;;0.43;;
8982;SDS011;20979;59.850;10.660;2023-05-29T14:54:15;0.63;;;0.43;;
8982;SDS011;20979;59.850;10.660;2023-05-29T14:56:44;1.55;;;0.57;;
8982;SDS011;20979;59.850;10.660;2023-05-29T14:59:32;0.45;;;0.45;;
8982;SDS011;20979;59.850;10.660;2023-05-29T15:02:02;0.63;;;0.50;;
8982;SDS011;20979;59.850;10.660;2023-05-29T15:04:30;0.85;;;0.40;;
8982;SDS011;20979;59.850;10.660;2023-05-29T15:06:59;0.85;;;0.40;;
8982;SDS011;20979;59.850;10.660;2023-05-29T15:09:27;1.70;;;0.60;;
8982;SDS011;20979;59.850;10.660;2023-05-29T15:11:55;1.30;;;0.90;;
8982;SDS011;20979;59.850;10.660;2023-05-29T15:14:23;1.42;;;0.85;;
8982;SDS011;20979;59.850;10.660;2023-05-29T15:16:51;1.67;;;0.80;;
8982;SDS011;20979;59.850;10.660;2023-05-29T15:40:22;0.80;;;0.60;;
8982;SDS011;20979;59.850;10.660;2023-05-29T15:43:03;1.95;;;0.70;;
8982;SDS011;20979;59.850;10.660;2023-05-29T15:45:30;0.80;;;0.80;;
8982;SDS011;20979;59.850;10.660;2023-05-29T15:54:01;1.08;;;0.70;;
8982;SDS011;20979;59.850;10.660;2023-05-29T15:56:30;2.03;;;0.73;;
8982;SDS011;20979;59.850;10.660;2023-05-29T15:59:01;0.60;;;0.60;;
8982;SDS011;20979;59.850;10.660;2023-05-29T16:01:39;1.95;;;1.17;;
8982;SDS011;20979;59.850;10.660;2023-05-29T16:04:23;1.02;;;0.70;;
8982;SDS011;20979;59.850;10.660;2023-05-29T16:07:04;0.93;;;0.73;;
8982;SDS011;20979;59.850;10.660;2023-05-29T16:12:34;1.43;;;0.83;;
8982;SDS011;20979;59.850;10.660;2023-05-29T16:15:24;2.42;;;1.13;;
8982;SDS011;20979;59.850;10.660;2023-05-29T16:17:55;1.00;;;1.00;;
8982;SDS011;20979;59.850;10.660;2023-05-29T16:20:26;1.48;;;0.73;;
8982;SDS011;20979;59.850;10.660;2023-05-29T16:23:11;3.25;;;0.90;;
8982;SDS011;20979;59.850;10.660;2023-05-29T16:25:42;1.00;;;0.88;;
8982;SDS011;20979;59.850;10.660;2023-05-29T16:28:14;2.92;;;0.95;;
8982;SDS011;20979;59.850;10.660;2023-05-29T16:31:01;1.65;;;0.63;;
8982;SDS011;20979;59.850;10.660;2023-05-29T16:36:43;1.50;;;0.90;;
8982;SDS011;20979;59.850;10.660;2023-05-29T16:42:15;2.78;;;1.42;;
8982;SDS011;20979;59.850;10.660;2023-05-29T16:45:06;1.15;;;0.80;;
8982;SDS011;20979;59.850;10.660;2023-05-29T16:47:42;1.08;;;0.70;;
8982;SDS011;20979;59.850;10.660;2023-05-29T16:50:10;2.92;;;0.90;;
8982;SDS011;20979;59.850;10.660;2023-05-29T16:52:54;1.85;;;0.80;;
8982;SDS011;20979;59.850;10.660;2023-05-29T16:55:22;2.38;;;0.80;;
8982;SDS011;20979;59.850;10.660;2023-05-29T16:57:50;0.82;;;0.77;;
8982;SDS011;20979;59.850;10.660;2023-05-29T17:00:32;1.33;;;0.77;;
8982;SDS011;20979;59.850;10.660;2023-05-29T17:03:18;1.15;;;0.65;;
8982;SDS011;20979;59.850;10.660;2023-05-29T17:05:48;1.33;;;0.98;;
8982;SDS011;20979;59.850;10.660;2023-05-29T17:08:39;0.93;;;0.77;;
8982;SDS011;20979;59.850;10.660;2023-05-29T17:11:07;0.90;;;0.77;;
8982;SDS011;20979;59.850;10.660;2023-05-29T17:13:38;1.15;;;0.70;;
8982;SDS011;20979;59.850;10.660;2023-05-29T17:21:52;0.70;;;0.60;;
8982;SDS011;20979;59.850;10.660;2023-05-29T17:24:26;0.95;;;0.80;;
8982;SDS011;20979;59.850;10.660;2023-05-29T17:26:53;1.40;;;0.77;;
8982;SDS011;20979;59.850;10.660;2023-05-29T17:29:30;0.40;;;0.40;;
8982;SDS011;20979;59.850;10.660;2023-05-29T17:32:00;1.77;;;0.70;;
8982;SDS011;20979;59.850;10.660;2023-05-29T17:34:28;1.08;;;0.75;;
8982;SDS011;20979;59.850;10.660;2023-05-29T17:36:57;0.43;;;0.43;;
8982;SDS011;20979;59.850;10.660;2023-05-29T17:45:22;12.75;;;1.52;;
8982;SDS011;20979;59.850;10.660;2023-05-29T17:47:54;2.20;;;0.50;;
8982;SDS011;20979;59.850;10.660;2023-05-29T17:50:28;0.70;;;0.20;;
8982;SDS011;20979;59.850;10.660;2023-05-29T17:53:09;0.10;;;0.10;;
8982;SDS011;20979;59.850;10.660;2023-05-29T17:55:42;1.58;;;0.40;;
8982;SDS011;20979;59.850;10.660;2023-05-29T17:58:18;0.77;;;0.15;;
8982;SDS011;20979;59.850;10.660;2023-05-29T18:00:55;0.10;;;0.10;;
8982;SDS011;20979;59.850;10.660;2023-05-29T18:03:42;0.30;;;0.10;;
8982;SDS011;20979;59.850;10.660;2023-05-29T18:06:12;2.00;;;0.32;;
8982;SDS011;20979;59.850;10.660;2023-05-29T18:08:55;0.65;;;0.20;;
8982;SDS011;20979;59.850;10.660;2023-05-29T18:11:23;0.82;;;0.20;;
8982;SDS011;20979;59.850;10.660;2023-05-29T18:13:53;0.98;;;0.10;;
8982;SDS011;20979;59.850;10.660;2023-05-29T18:16:33;0.15;;;0.15;;
8982;SDS011;20979;59.850;10.660;2023-05-29T18:19:18;16.23;;;1.40;;
8982;SDS011;20979;59.850;10.660;2023-05-29T18:21:58;2.15;;;0.40;;
8982;SDS011;20979;59.850;10.660;2023-05-29T18:24:27;1.30;;;0.30;;
8982;SDS011;20979;59.850;10.660;2023-05-29T18:27:09;5.13;;;0.85;;
8982;SDS011;20979;59.850;10.660;2023-05-29T18:29:36;2.30;;;0.20;;
8982;SDS011;20979;59.850;10.660;2023-05-29T18:32:04;0.10;;;0.10;;
8982;SDS011;20979;59.850;10.660;2023-05-29T18:34:32;0.08;;;0.08;;
8982;SDS011;20979;59.850;10.660;2023-05-29T18:36:59;0.00;;;0.00;;
8982;SDS011;20979;59.850;10.660;2023-05-29T18:39:29;0.10;;;0.10;;
8982;SDS011;20979;59.850;10.660;2023-05-29T18:41:56;0.10;;;0.10;;
8982;SDS011;20979;59.850;10.660;2023-05-29T18:44:24;0.10;;;0.10;;
8982;SDS011;20979;59.850;10.660;2023-05-29T18:46:51;0.10;;;0.10;;
8982;SDS011;20979;59.850;10.660;2023-05-29T18:49:19;0.10;;;0.00;;
8982;SDS011;20979;59.850;10.660;2023-05-29T18:51:50;0.25;;;0.13;;
8982;SDS011;20979;59.850;10.660;2023-05-29T18:54:17;0.10;;;0.10;;
8982;SDS011;20979;59.850;10.660;2023-05-29T18:56:49;0.33;;;0.10;;
8982;SDS011;20979;59.850;10.660;2023-05-29T18:59:17;1.00;;;0.00;;
8982;SDS011;20979;59.850;10.660;2023-05-29T19:01:53;0.20;;;0.10;;
8982;SDS011;20979;59.850;10.660;2023-05-29T19:04:21;0.63;;;0.15;;
8982;SDS011;20979;59.850;10.660;2023-05-29T19:06:49;1.17;;;0.00;;
8982;SDS011;20979;59.850;10.660;2023-05-29T19:09:18;0.03;;;0.03;;
8982;SDS011;20979;59.850;10.660;2023-05-29T19:11:46;1.00;;;0.20;;
8982;SDS011;20979;59.850;10.660;2023-05-29T19:14:17;0.43;;;0.10;;
8982;SDS011;20979;59.850;10.660;2023-05-29T19:16:44;3.28;;;0.32;;
8982;SDS011;20979;59.850;10.660;2023-05-29T19:19:12;0.10;;;0.10;;
8982;SDS011;20979;59.850;10.660;2023-05-29T19:21:43;0.10;;;0.10;;
8982;SDS011;20979;59.850;10.660;2023-05-29T19:24:14;0.33;;;0.13;;
8982;SDS011;20979;59.850;10.660;2023-05-29T19:26:43;0.10;;;0.10;;
8982;SDS011;20979;59.850;10.660;2023-05-29T19:29:25;0.10;;;0.10;;
8982;SDS011;20979;59.850;10.660;2023-05-29T19:31:52;0.25;;;0.15;;
8982;SDS011;20979;59.850;10.660;2023-05-29T19:34:22;0.10;;;0.10;;